TimeCST,TemperatureF,Dew PointF,Humidity,Sea Level PressureIn,VisibilityMPH,Wind Direction,Wind SpeedMPH,Gust SpeedMPH,PrecipitationIn,Events,Conditions,WindDirDegrees,DateUTC
12:13 AM,-5.8,-9.4,84,30.28,10.0,North,5.8,-,N/A,,Clear,350,2013-01-26 06:13:00
12:34 AM,-5.8,-9.4,84,30.27,10.0,North,6.9,-,N/A,,Clear,10,2013-01-26 06:34:00
12:53 AM,-5.8,-9.4,84,30.27,10.0,NNE,8.1,-,N/A,,Clear,20,2013-01-26 06:53:00
1:13 AM,-4.0,-9.4,78,30.26,10.0,NNE,6.9,-,N/A,,Clear,20,2013-01-26 07:13:00
1:33 AM,-5.8,-9.4,84,30.25,10.0,NNE,6.9,-,N/A,,Clear,30,2013-01-26 07:33:00
1:53 AM,-5.8,-9.4,84,30.25,10.0,NE,4.6,-,N/A,,Clear,40,2013-01-26 07:53:00
2:13 AM,-7.6,-11.2,84,30.25,10.0,NE,5.8,-,N/A,,Clear,40,2013-01-26 08:13:00
2:33 AM,-7.6,-11.2,84,30.26,10.0,NE,3.5,-,N/A,,Clear,50,2013-01-26 08:33:00
2:53 AM,-7.6,-11.2,84,30.25,10.0,ENE,4.6,-,N/A,,Clear,70,2013-01-26 08:53:00
3:13 AM,-7.6,-11.2,84,30.24,10.0,East,4.6,-,N/A,,Clear,90,2013-01-26 09:13:00
3:33 AM,-7.6,-11.2,84,30.25,10.0,East,3.5,-,N/A,,Clear,90,2013-01-26 09:33:00
3:53 AM,-7.6,-11.2,84,30.24,10.0,East,3.5,-,N/A,,Clear,90,2013-01-26 09:53:00
4:13 AM,-7.6,-11.2,84,30.24,10.0,East,3.5,-,N/A,,Clear,100,2013-01-26 10:13:00
4:33 AM,-7.6,-11.2,84,30.25,10.0,Calm,Calm,-,N/A,,Clear,0,2013-01-26 10:33:00
4:53 AM,-7.6,-11.2,84,30.24,10.0,ESE,5.8,-,N/A,,Clear,110,2013-01-26 10:53:00
5:14 AM,-9.4,-13.0,84,30.24,10.0,ESE,4.6,-,N/A,,Clear,110,2013-01-26 11:14:00
5:33 AM,-7.6,-11.2,84,30.24,10.0,ESE,3.5,-,N/A,,Clear,110,2013-01-26 11:33:00
5:53 AM,-7.6,-11.2,84,30.24,10.0,ESE,5.8,-,N/A,,Clear,110,2013-01-26 11:53:00
6:14 AM,-7.6,-11.2,84,30.24,10.0,ESE,6.9,-,N/A,,Clear,110,2013-01-26 12:14:00
6:33 AM,-5.8,-9.4,84,30.24,10.0,ESE,6.9,-,N/A,,Clear,110,2013-01-26 12:33:00
6:53 AM,-5.8,-9.4,84,30.24,10.0,ESE,6.9,-,N/A,,Clear,110,2013-01-26 12:53:00
7:14 AM,-4.0,-7.6,85,30.23,10.0,ESE,6.9,-,N/A,,Scattered Clouds,110,2013-01-26 13:14:00
7:33 AM,-2.2,-7.6,78,30.23,10.0,ESE,8.1,-,N/A,,Scattered Clouds,120,2013-01-26 13:33:00
7:53 AM,-2.2,-5.8,85,30.23,10.0,SE,9.2,-,N/A,,Clear,130,2013-01-26 13:53:00
8:14 AM,-0.4,-5.8,78,30.23,10.0,SE,10.4,-,N/A,,Clear,140,2013-01-26 14:14:00
8:33 AM,-0.4,-5.8,78,30.23,10.0,SE,11.5,-,N/A,,Mostly Cloudy,130,2013-01-26 14:33:00
8:53 AM,1.4,-4.0,78,30.22,10.0,SE,11.5,-,N/A,,Overcast,130,2013-01-26 14:53:00
9:14 AM,1.4,-2.2,85,30.21,10.0,SSE,15.0,-,N/A,,Overcast,150,2013-01-26 15:14:00
9:33 AM,3.2,-2.2,78,30.20,10.0,SE,11.5,-,N/A,,Mostly Cloudy,140,2013-01-26 15:33:00
9:53 AM,3.2,-2.2,78,30.20,10.0,SSE,10.4,-,N/A,,Scattered Clouds,150,2013-01-26 15:53:00
10:14 AM,3.2,-0.4,85,30.22,10.0,SE,5.8,-,N/A,,Clear,130,2013-01-26 16:14:00
10:53 AM,6.8,-0.4,72,30.21,10.0,SE,10.4,-,N/A,,Scattered Clouds,140,2013-01-26 16:53:00
11:13 AM,6.8,1.4,79,30.20,10.0,SE,12.7,-,N/A,,Scattered Clouds,140,2013-01-26 17:13:00
11:33 AM,8.6,1.4,73,30.21,10.0,SSE,10.4,-,N/A,,Scattered Clouds,150,2013-01-26 17:33:00
11:53 AM,8.6,1.4,73,30.19,10.0,SE,10.4,-,N/A,,Scattered Clouds,140,2013-01-26 17:53:00
12:13 PM,10.4,3.2,73,30.18,10.0,ESE,11.5,-,N/A,,Scattered Clouds,120,2013-01-26 18:13:00
12:33 PM,10.4,3.2,73,30.17,10.0,ESE,12.7,-,N/A,,Scattered Clouds,110,2013-01-26 18:33:00
12:54 PM,10.4,3.2,73,30.14,10.0,ESE,13.8,-,N/A,,Scattered Clouds,120,2013-01-26 18:54:00
1:13 PM,12.2,3.2,67,30.14,10.0,ESE,13.8,-,N/A,,Clear,120,2013-01-26 19:13:00
1:33 PM,14.0,5.0,67,30.12,10.0,ESE,15.0,-,N/A,,Clear,120,2013-01-26 19:33:00
1:54 PM,12.2,5.0,73,30.11,10.0,ESE,15.0,-,N/A,,Clear,120,2013-01-26 19:54:00
2:13 PM,12.2,6.8,79,30.11,10.0,ESE,13.8,-,N/A,,Scattered Clouds,110,2013-01-26 20:13:00
2:33 PM,14.0,6.8,73,30.10,10.0,ESE,16.1,-,N/A,,Scattered Clouds,120,2013-01-26 20:33:00
2:54 PM,14.0,6.8,73,30.09,10.0,ESE,17.3,-,N/A,,Clear,120,2013-01-26 20:54:00
3:33 PM,15.8,8.6,73,30.09,10.0,ESE,15.0,-,N/A,,Clear,120,2013-01-26 21:33:00
3:54 PM,15.8,8.6,73,30.09,10.0,SE,16.1,21.9,N/A,,Clear,140,2013-01-26 21:54:00
4:13 PM,15.8,8.6,73,30.08,10.0,SE,18.4,-,N/A,,Clear,130,2013-01-26 22:13:00
4:33 PM,15.8,8.6,73,30.07,10.0,SE,17.3,-,N/A,,Clear,130,2013-01-26 22:33:00
4:54 PM,15.8,8.6,73,30.06,10.0,SE,17.3,-,N/A,,Clear,130,2013-01-26 22:54:00
5:13 PM,15.8,8.6,73,30.06,10.0,SE,12.7,-,N/A,,Clear,130,2013-01-26 23:13:00
5:33 PM,15.8,8.6,73,30.06,10.0,ESE,12.7,-,N/A,,Clear,120,2013-01-26 23:33:00
5:54 PM,15.8,8.6,73,30.06,10.0,ESE,13.8,-,N/A,,Clear,120,2013-01-26 23:54:00
6:13 PM,15.8,8.6,73,30.04,10.0,SE,13.8,-,N/A,,Clear,130,2013-01-27 00:13:00
6:33 PM,15.8,8.6,73,30.05,10.0,SE,16.1,-,N/A,,Clear,140,2013-01-27 00:33:00
6:54 PM,15.8,10.4,79,30.05,10.0,SE,13.8,-,N/A,,Clear,130,2013-01-27 00:54:00
7:13 PM,15.8,10.4,79,30.04,10.0,SE,16.1,-,N/A,,Clear,140,2013-01-27 01:13:00
7:33 PM,15.8,10.4,79,30.03,10.0,SSE,18.4,-,N/A,,Clear,150,2013-01-27 01:33:00
7:53 PM,17.6,10.4,73,30.04,10.0,SE,15.0,-,N/A,,Clear,140,2013-01-27 01:53:00
8:13 PM,17.6,10.4,73,30.03,10.0,SE,15.0,-,N/A,,Clear,140,2013-01-27 02:13:00
8:34 PM,17.6,10.4,73,30.04,10.0,ESE,11.5,-,N/A,,Clear,120,2013-01-27 02:34:00
8:53 PM,17.6,10.4,73,30.03,10.0,ESE,10.4,-,N/A,,Clear,120,2013-01-27 02:53:00
9:13 PM,17.6,10.4,73,30.04,10.0,ESE,6.9,-,N/A,,Clear,110,2013-01-27 03:13:00
9:34 PM,15.8,10.4,79,30.03,10.0,East,8.1,-,N/A,,Clear,100,2013-01-27 03:34:00
9:53 PM,15.8,10.4,79,30.03,10.0,East,6.9,-,N/A,,Clear,90,2013-01-27 03:53:00
10:13 PM,15.8,8.6,73,30.03,10.0,East,6.9,-,N/A,,Clear,90,2013-01-27 04:13:00
10:33 PM,14.0,8.6,79,30.02,10.0,East,8.1,-,N/A,,Clear,100,2013-01-27 04:33:00
10:53 PM,14.0,8.6,79,30.02,10.0,East,6.9,-,N/A,,Clear,100,2013-01-27 04:53:00
11:13 PM,14.0,8.6,79,30.02,10.0,East,8.1,-,N/A,,Clear,100,2013-01-27 05:13:00
11:33 PM,12.2,8.6,85,30.01,10.0,East,9.2,-,N/A,,Clear,100,2013-01-27 05:33:00
11:53 PM,14.0,8.6,79,30.01,10.0,ESE,8.1,-,N/A,,Clear,110,2013-01-27 05:53:00